createdAt,value
2022-12-27T00:02:06.119Z,94875.16
2022-12-27T00:04:32.764Z,94867.44
2022-12-27T00:06:59.408Z,94881.81
2022-12-27T00:09:26.058Z,94878.88
2022-12-27T00:11:58.071Z,94884.44
2022-12-27T00:14:26.375Z,94897.44
2022-12-27T00:16:53.044Z,94881.78
2022-12-27T00:19:19.845Z,94884.25
2022-12-27T00:21:46.616Z,94892.72
2022-12-27T00:24:13.419Z,94897.72
2022-12-27T00:26:40.993Z,94890.88
2022-12-27T00:29:08.054Z,94907.28
2022-12-27T00:31:35.293Z,94897.03
2022-12-27T00:34:05.719Z,94914.03
2022-12-27T00:36:32.680Z,94918.81
2022-12-27T00:39:00.287Z,94918.34
2022-12-27T00:41:27.941Z,94944.09
2022-12-27T00:43:54.632Z,94935.66
2022-12-27T00:46:21.587Z,94938.31
2022-12-27T00:48:49.071Z,94930.41
2022-12-27T00:51:19.336Z,94935.72
2022-12-27T00:53:46.810Z,94922.47
2022-12-27T00:56:31.603Z,94938.94
2022-12-27T00:59:01.131Z,94946.34
2022-12-27T01:01:29.932Z,94944.53
2022-12-27T01:03:58.131Z,94950.06
2022-12-27T01:06:29.059Z,94943.44
2022-12-27T01:08:56.747Z,94951.94
2022-12-27T01:11:26.203Z,94968.69
2022-12-27T01:13:57.594Z,94980.91
2022-12-27T01:16:25.805Z,94974.53
2022-12-27T01:18:53.066Z,94984.06
2022-12-27T01:21:21.935Z,94983.56
2022-12-27T01:23:49.832Z,95004.78
2022-12-27T01:26:19.638Z,95001.31
2022-12-27T01:28:47.636Z,95011.69
2022-12-27T01:31:21.426Z,95014.34
2022-12-27T01:33:48.703Z,95023.34
2022-12-27T01:36:20.301Z,95027.88
2022-12-27T01:38:48.801Z,95039.03
2022-12-27T01:41:47.750Z,95033.72
2022-12-27T01:44:39.633Z,95048.28
2022-12-27T01:47:12.382Z,95058.34
2022-12-27T01:49:59.809Z,95055.69
2022-12-27T01:52:35.202Z,95059.94
2022-12-27T01:55:10.707Z,95056.75
2022-12-27T01:57:37.493Z,95068.91
2022-12-27T02:00:05.167Z,95079.78
2022-12-27T02:02:32.449Z,95083.72
2022-12-27T02:04:59.298Z,95088.97
2022-12-27T02:07:36.667Z,95091.38
2022-12-27T02:10:04.111Z,95094.28
2022-12-27T02:12:31.972Z,95096.91
2022-12-27T02:14:58.995Z,95084.16
2022-12-27T02:17:29.325Z,95090.50
2022-12-27T02:20:16.006Z,95093.66
2022-12-27T02:23:10.493Z,95102.16
2022-12-27T02:25:59.070Z,95101.59
2022-12-27T02:28:58.960Z,95100.50
2022-12-27T02:31:41.002Z,95109.75
2022-12-27T02:34:17.261Z,95113.69
2022-12-27T02:36:46.013Z,95126.94
2022-12-27T02:39:15.657Z,95122.69
2022-12-27T02:42:02.998Z,95120.00
2022-12-27T02:44:48.949Z,95118.13
2022-12-27T02:47:38.761Z,95117.81
2022-12-27T02:50:27.051Z,95127.31
2022-12-27T02:53:05.290Z,95137.09
2022-12-27T02:56:40.238Z,95135.25
2022-12-27T03:00:02.245Z,95135.22
2022-12-27T03:03:04.700Z,95147.88
2022-12-27T03:06:17.492Z,95137.31
2022-12-27T03:09:04.331Z,95126.19
2022-12-27T03:12:02.126Z,95135.72
2022-12-27T03:14:56.459Z,95131.97
2022-12-27T03:17:49.077Z,95131.94
2022-12-27T03:20:36.864Z,95124.25
2022-12-27T03:23:22.555Z,95127.69
2022-12-27T03:25:51.700Z,95130.06
2022-12-27T03:28:41.330Z,95139.06
2022-12-27T03:31:51.339Z,95139.06
2022-12-27T03:34:31.873Z,95136.41
2022-12-27T03:37:50.608Z,95136.66
2022-12-27T03:41:06.459Z,95146.25
2022-12-27T03:43:34.902Z,95146.19
2022-12-27T03:46:34.363Z,95152.28
2022-12-27T03:49:16.359Z,95154.38
2022-12-27T03:52:05.837Z,95153.03
2022-12-27T03:54:39.502Z,95151.19
2022-12-27T03:57:09.861Z,95156.78
2022-12-27T03:59:36.546Z,95153.09
2022-12-27T04:02:05.396Z,95162.09
2022-12-27T04:04:33.094Z,95165.81
2022-12-27T04:07:00.041Z,95165.25
2022-12-27T04:09:45.362Z,95162.88
2022-12-27T04:12:31.167Z,95174.53
2022-12-27T04:15:16.505Z,95168.94
2022-12-27T04:18:04.368Z,95177.13
2022-12-27T04:20:50.779Z,95165.72
2022-12-27T04:23:35.989Z,95175.25
2022-12-27T04:26:21.406Z,95175.03
2022-12-27T04:29:06.738Z,95167.50
2022-12-27T04:31:51.820Z,95172.50
2022-12-27T04:34:37.162Z,95172.25
2022-12-27T04:37:04.167Z,95180.41
2022-12-27T04:39:30.903Z,95180.97
2022-12-27T04:42:16.251Z,95187.31
2022-12-27T04:45:02.855Z,95188.91
2022-12-27T04:47:48.711Z,95188.91
2022-12-27T04:50:45.656Z,95189.44
2022-12-27T04:53:34.112Z,95196.56
2022-12-27T04:56:01.125Z,95184.16
2022-12-27T04:58:28.220Z,95206.38
2022-12-27T05:01:16.115Z,95202.94
2022-12-27T05:03:44.144Z,95206.63
2022-12-27T05:06:11.595Z,95207.16
2022-12-27T05:08:57.392Z,95210.66
2022-12-27T05:11:42.780Z,95213.50
2022-12-27T05:14:13.242Z,95209.50
2022-12-27T05:16:42.460Z,95226.44
2022-12-27T05:19:11.384Z,95221.16
2022-12-27T05:21:40.262Z,95228.03
2022-12-27T05:24:25.569Z,95220.38
2022-12-27T05:26:55.990Z,95231.22
2022-12-27T05:29:22.596Z,95216.94
2022-12-27T05:31:49.368Z,95233.03
2022-12-27T05:34:16.139Z,95232.19
2022-12-27T05:36:42.775Z,95231.13
2022-12-27T05:39:09.441Z,95226.41
2022-12-27T05:41:36.120Z,95226.41
2022-12-27T05:44:07.114Z,95229.84
2022-12-27T05:46:35.216Z,95234.31
2022-12-27T05:49:01.978Z,95233.72
2022-12-27T05:51:28.642Z,95224.44
2022-12-27T05:53:55.332Z,95234.69
2022-12-27T05:56:22.150Z,95227.81
2022-12-27T05:58:48.853Z,95235.19
2022-12-27T06:01:17.835Z,95227.47
2022-12-27T06:03:45.271Z,95243.03
2022-12-27T06:06:13.119Z,95231.91
2022-12-27T06:08:40.751Z,95234.84
2022-12-27T06:11:15.209Z,95241.00
2022-12-27T06:13:43.350Z,95237.00
2022-12-27T06:16:12.433Z,95232.47
2022-12-27T06:18:40.857Z,95232.72
2022-12-27T06:21:10.441Z,95240.16
2022-12-27T06:23:39.401Z,95241.44
2022-12-27T06:26:12.339Z,95239.09
2022-12-27T06:28:39.019Z,95242.53
2022-12-27T06:31:05.926Z,95240.88
2022-12-27T06:33:32.826Z,95237.09
2022-12-27T06:35:59.515Z,95246.81
2022-12-27T06:38:26.262Z,95255.38
2022-12-27T06:40:52.891Z,95260.06
2022-12-27T06:43:19.563Z,95253.59
2022-12-27T06:45:55.847Z,95258.34
2022-12-27T06:48:22.513Z,95256.72
2022-12-27T06:50:49.131Z,95260.09
2022-12-27T06:53:15.843Z,95269.13
2022-12-27T06:55:42.476Z,95266.81
2022-12-27T06:58:09.231Z,95264.47
2022-12-27T07:00:36.154Z,95266.63
2022-12-27T07:03:06.162Z,95271.13
2022-12-27T07:05:36.458Z,95275.06
2022-12-27T07:08:03.206Z,95278.50
2022-12-27T07:10:29.924Z,95274.25
2022-12-27T07:12:57.274Z,95278.66
2022-12-27T07:15:24.624Z,95282.50
2022-12-27T07:17:51.448Z,95274.22
2022-12-27T07:20:18.304Z,95280.88
2022-12-27T07:22:45.041Z,95281.66
2022-12-27T07:25:11.765Z,95289.91
2022-12-27T07:27:38.424Z,95283.31
2022-12-27T07:30:06.393Z,95288.78
2022-12-27T07:32:33.142Z,95287.97
2022-12-27T07:34:59.880Z,95284.53
2022-12-27T07:37:26.624Z,95290.38
2022-12-27T07:39:53.320Z,95292.53
2022-12-27T07:42:20.004Z,95285.72
2022-12-27T07:44:48.368Z,95285.25
2022-12-27T07:47:15.053Z,95286.25
2022-12-27T07:49:41.701Z,95281.41
2022-12-27T07:52:08.375Z,95279.03
2022-12-27T07:54:35.224Z,95296.16
2022-12-27T07:57:01.861Z,95299.72
2022-12-27T07:59:29.232Z,95286.00
2022-12-27T08:02:05.073Z,95288.41
2022-12-27T08:04:33.973Z,95290.81
2022-12-27T08:07:27.135Z,95294.75
2022-12-27T08:09:53.797Z,95299.72
2022-12-27T08:12:20.485Z,95297.75
2022-12-27T08:14:47.114Z,95305.16
2022-12-27T08:17:27.218Z,95309.00
2022-12-27T08:19:55.340Z,95315.13
2022-12-27T08:22:23.689Z,95311.56
2022-12-27T08:24:51.182Z,95307.47
2022-12-27T08:27:22.930Z,95303.84
2022-12-27T08:29:49.874Z,95307.31
2022-12-27T08:32:16.913Z,95311.03
2022-12-27T08:34:43.586Z,95307.31
2022-12-27T08:37:10.299Z,95310.25
2022-12-27T08:39:36.942Z,95306.81
2022-12-27T08:42:03.828Z,95316.91
2022-12-27T08:44:30.523Z,95309.19
2022-12-27T08:46:57.287Z,95312.59
2022-12-27T08:49:24.003Z,95316.84
2022-12-27T08:51:50.703Z,95318.47
2022-12-27T08:54:42.699Z,95325.34
2022-12-27T08:57:09.344Z,95314.97
2022-12-27T08:59:36.020Z,95319.47
2022-12-27T09:02:02.875Z,95308.78
2022-12-27T09:04:29.608Z,95319.44
2022-12-27T09:06:56.250Z,95317.31
2022-12-27T09:09:22.897Z,95337.31
2022-12-27T09:11:49.546Z,95335.47
2022-12-27T09:14:16.277Z,95334.91
2022-12-27T09:16:43.006Z,95336.00
2022-12-27T09:19:10.385Z,95349.00
2022-12-27T09:21:40.594Z,95352.47
2022-12-27T09:24:10.249Z,95359.69
2022-12-27T09:26:36.939Z,95348.78
2022-12-27T09:29:03.661Z,95354.06
2022-12-27T09:31:30.801Z,95360.69
2022-12-27T09:33:58.144Z,95366.25
2022-12-27T09:36:29.038Z,95356.53
2022-12-27T09:38:57.364Z,95364.47
2022-12-27T09:44:38.193Z,95357.31
2022-12-27T09:47:12.821Z,95352.88
2022-12-27T09:49:47.522Z,95356.25
2022-12-27T09:52:41.533Z,95355.22
2022-12-27T09:55:17.780Z,95364.34
2022-12-27T09:57:46.916Z,95362.63
2022-12-27T10:00:34.157Z,95347.78
2022-12-27T10:03:05.528Z,95352.56
2022-12-27T10:05:35.088Z,95362.22
2022-12-27T10:08:01.765Z,95353.34
2022-12-27T10:10:41.727Z,95345.53
2022-12-27T10:13:20.543Z,95349.97
2022-12-27T10:16:09.618Z,95344.59
2022-12-27T10:19:07.753Z,95349.28
2022-12-27T10:21:39.498Z,95347.91
2022-12-27T10:24:20.825Z,95345.28
2022-12-27T10:26:47.609Z,95346.88
2022-12-27T10:29:21.831Z,95350.97
2022-12-27T10:31:48.832Z,95349.84
2022-12-27T10:34:17.943Z,95347.97
2022-12-27T10:36:45.401Z,95326.25
2022-12-27T10:39:18.825Z,95336.81
2022-12-27T10:41:57.641Z,95334.72
2022-12-27T10:44:24.449Z,95332.91
2022-12-27T10:46:53.962Z,95336.50
2022-12-27T10:49:23.219Z,95334.25
2022-12-27T10:51:52.207Z,95333.81
2022-12-27T10:54:23.883Z,95332.09
2022-12-27T10:56:51.245Z,95339.25
2022-12-27T10:59:21.576Z,95327.53
2022-12-27T11:02:08.235Z,95330.25
2022-12-27T11:04:35.001Z,95324.00
2022-12-27T11:07:02.251Z,95331.00
2022-12-27T11:09:50.758Z,95328.47
2022-12-27T11:12:23.774Z,95324.22
2022-12-27T11:15:15.791Z,95322.53
2022-12-27T11:17:48.971Z,95326.59
2022-12-27T11:20:47.919Z,95319.97
2022-12-27T11:23:20.964Z,95319.47
2022-12-27T11:26:08.043Z,95310.63
2022-12-27T11:28:38.475Z,95315.75
2022-12-27T11:31:11.880Z,95304.78
2022-12-27T11:33:49.945Z,95316.94
2022-12-27T11:36:26.464Z,95307.75
2022-12-27T11:38:53.172Z,95307.94
2022-12-27T11:41:36.377Z,95306.41
2022-12-27T11:44:34.112Z,95302.97
2022-12-27T11:47:06.392Z,95295.00
2022-12-27T11:49:43.103Z,95300.69
2022-12-27T11:52:28.264Z,95295.19
2022-12-27T11:55:40.076Z,95293.81
2022-12-27T11:58:18.847Z,95297.31
2022-12-27T12:01:07.199Z,95296.41
2022-12-27T12:03:42.547Z,95296.50
2022-12-27T12:06:34.443Z,95310.13
2022-12-27T12:09:04.417Z,95304.03
2022-12-27T12:12:06.144Z,95303.47
2022-12-27T12:14:35.689Z,95307.59
2022-12-27T12:17:23.084Z,95301.63
2022-12-27T12:20:14.541Z,95301.63
2022-12-27T12:23:00.034Z,95297.72
2022-12-27T12:25:54.830Z,95294.28
2022-12-27T12:28:56.973Z,95294.84
2022-12-27T12:31:20.139Z,95294.00
2022-12-27T12:33:59.003Z,95289.91
2022-12-27T12:36:40.896Z,95287.03
2022-12-27T12:39:26.158Z,95279.63
2022-12-27T12:42:05.388Z,95282.03
2022-12-27T12:44:41.132Z,95283.94
2022-12-27T12:47:47.282Z,95290.69
2022-12-27T12:50:40.206Z,95285.56
2022-12-27T12:53:32.009Z,95276.94
2022-12-27T12:56:20.328Z,95276.66
2022-12-27T12:59:02.376Z,95280.53
2022-12-27T13:01:51.129Z,95275.00
2022-12-27T13:04:36.606Z,95274.88
2022-12-27T13:07:11.145Z,95278.03
2022-12-27T13:09:40.498Z,95280.72
2022-12-27T13:12:16.105Z,95274.47
2022-12-27T13:14:55.217Z,95272.81
2022-12-27T13:17:46.748Z,95272.09
2022-12-27T13:20:42.190Z,95273.09
2022-12-27T13:23:37.566Z,95274.63
2022-12-27T13:26:45.211Z,95269.69
2022-12-27T13:29:39.582Z,95265.63
2022-12-27T13:32:28.255Z,95263.31
2022-12-27T13:35:37.863Z,95259.97
2022-12-27T13:38:41.821Z,95252.25
2022-12-27T13:41:30.192Z,95249.63
2022-12-27T13:44:06.480Z,95260.13
2022-12-27T13:47:06.603Z,95257.00
2022-12-27T13:49:51.576Z,95262.13
2022-12-27T13:52:46.176Z,95261.84
2022-12-27T13:55:15.922Z,95254.63
2022-12-27T13:57:51.853Z,95254.13
2022-12-27T14:00:22.432Z,95252.81
2022-12-27T14:03:19.708Z,95254.03
2022-12-27T14:06:07.828Z,95260.94
2022-12-27T14:09:15.792Z,95260.56
2022-12-27T14:12:06.738Z,95263.13
2022-12-27T14:14:39.024Z,95256.00
2022-12-27T14:17:25.862Z,95259.25
2022-12-27T14:20:15.387Z,95271.00
2022-12-27T14:23:21.272Z,95268.00
2022-12-27T14:25:54.284Z,95269.22
2022-12-27T14:28:39.158Z,95271.44
2022-12-27T14:31:31.164Z,95273.72
2022-12-27T14:34:16.758Z,95277.19
2022-12-27T14:37:14.992Z,95280.78
2022-12-27T14:40:06.588Z,95285.94
2022-12-27T14:43:12.146Z,95289.94
2022-12-27T14:46:03.180Z,95288.66
2022-12-27T14:48:32.764Z,95285.28
2022-12-27T14:51:59.288Z,95284.28
2022-12-27T14:57:48.113Z,95280.13
2022-12-27T15:00:17.690Z,95285.22
2022-12-27T15:03:21.600Z,95283.91
2022-12-27T15:06:36.565Z,95280.22
2022-12-27T15:09:07.490Z,95288.44
2022-12-27T15:11:54.742Z,95288.19
2022-12-27T15:14:30.325Z,95295.09
2022-12-27T15:17:33.761Z,95287.94
2022-12-27T15:20:12.898Z,95289.78
2022-12-27T15:23:01.037Z,95300.94
2022-12-27T15:26:07.312Z,95290.88
2022-12-27T15:28:58.747Z,95288.72
2022-12-27T15:31:42.734Z,95280.47
2022-12-27T15:34:12.026Z,95281.81
2022-12-27T15:36:47.666Z,95284.44
2022-12-27T15:39:50.222Z,95273.00
2022-12-27T15:43:12.626Z,95286.00
2022-12-27T15:45:45.064Z,95286.00
2022-12-27T15:48:11.588Z,95285.69
2022-12-27T15:50:49.045Z,95282.25
2022-12-27T15:53:35.573Z,95278.78
2022-12-27T15:56:41.652Z,95273.50
2022-12-27T15:59:36.638Z,95275.59
2022-12-27T16:02:22.548Z,95274.00
2022-12-27T16:04:53.926Z,95276.38
2022-12-27T16:07:43.053Z,95268.41
2022-12-27T16:10:35.425Z,95268.13
2022-12-27T16:13:05.050Z,95265.69
2022-12-27T16:15:35.041Z,95262.25
2022-12-27T16:18:03.246Z,95256.41
2022-12-27T16:20:32.412Z,95268.59
2022-12-27T16:23:03.468Z,95267.56
2022-12-27T16:25:34.063Z,95261.72
2022-12-27T16:28:16.068Z,95259.88
2022-12-27T16:30:53.014Z,95259.88
2022-12-27T16:33:25.660Z,95258.03
2022-12-27T16:36:16.004Z,95257.22
2022-12-27T16:38:46.052Z,95258.59
2022-12-27T16:41:18.318Z,95257.28
2022-12-27T16:44:05.195Z,95253.00
2022-12-27T16:46:54.048Z,95249.56
2022-12-27T16:49:23.868Z,95238.69
2022-12-27T16:52:19.476Z,95243.47
2022-12-27T16:55:18.431Z,95226.78
2022-12-27T16:57:48.013Z,95228.91
2022-12-27T17:00:39.718Z,95228.13
2022-12-27T17:03:20.964Z,95227.53
2022-12-27T17:09:05.283Z,95222.16
2022-12-27T17:11:32.667Z,95218.38
2022-12-27T17:14:10.573Z,95212.00
2022-12-27T17:16:42.952Z,95210.38
2022-12-27T17:19:19.069Z,95201.31
2022-12-27T17:21:48.049Z,95209.78
2022-12-27T17:24:20.067Z,95216.94
2022-12-27T17:27:08.751Z,95218.81
2022-12-27T17:30:06.933Z,95217.00
2022-12-27T17:33:04.748Z,95219.91
2022-12-27T17:35:52.285Z,95214.13
2022-12-27T17:38:44.994Z,95207.75
2022-12-27T17:41:49.400Z,95205.66
2022-12-27T17:44:45.607Z,95207.78
2022-12-27T17:47:40.452Z,95207.28
2022-12-27T17:50:17.650Z,95197.22
2022-12-27T17:53:40.127Z,95197.22
2022-12-27T17:56:39.339Z,95195.06
2022-12-27T17:59:15.175Z,95195.06
2022-12-27T18:01:57.479Z,95194.78
2022-12-27T18:04:39.176Z,95194.47
2022-12-27T18:07:08.997Z,95192.06
2022-12-27T18:09:49.368Z,95182.22
2022-12-27T18:12:28.615Z,95177.63
2022-12-27T18:15:02.976Z,95181.53
2022-12-27T18:18:06.236Z,95181.19
2022-12-27T18:20:40.626Z,95173.94
2022-12-27T18:23:15.264Z,95166.22
2022-12-27T18:25:44.921Z,95167.09
2022-12-27T18:28:33.690Z,95163.75
2022-12-27T18:31:21.167Z,95166.75
2022-12-27T18:33:58.024Z,95176.03
2022-12-27T18:36:33.821Z,95176.22
2022-12-27T18:39:08.499Z,95165.59
2022-12-27T18:41:42.152Z,95163.94
2022-12-27T18:44:27.404Z,95160.97
2022-12-27T18:46:57.152Z,95160.91
2022-12-27T18:49:25.271Z,95155.38
2022-12-27T18:51:53.298Z,95173.59
2022-12-27T18:54:38.309Z,95166.13
2022-12-27T18:57:07.232Z,95166.31
2022-12-27T18:59:36.161Z,95159.38
2022-12-27T19:02:43.378Z,95161.56
2022-12-27T19:05:27.003Z,95154.16
2022-12-27T19:07:56.719Z,95153.63
2022-12-27T19:10:26.309Z,95138.50
2022-12-27T19:12:54.985Z,95146.19
2022-12-27T19:15:28.717Z,95145.69
2022-12-27T19:18:00.435Z,95149.41
2022-12-27T19:20:30.405Z,95148.84
2022-12-27T19:23:05.404Z,95148.53
2022-12-27T19:25:39.309Z,95150.59
2022-12-27T19:28:12.085Z,95149.78
2022-12-27T19:30:43.800Z,95141.84
2022-12-27T19:33:32.788Z,95138.66
2022-12-27T19:36:01.786Z,95135.22
2022-12-27T19:38:31.519Z,95130.53
2022-12-27T19:41:03.752Z,95122.25
2022-12-27T19:43:34.221Z,95124.34
2022-12-27T19:46:00.901Z,95115.00
2022-12-27T19:48:27.700Z,95119.50
2022-12-27T19:50:55.105Z,95114.16
2022-12-27T19:53:28.328Z,95109.91
2022-12-27T19:55:55.235Z,95110.66
2022-12-27T19:58:24.364Z,95123.91
2022-12-27T20:00:51.229Z,95119.38
2022-12-27T20:03:18.131Z,95118.22
2022-12-27T20:06:13.653Z,95112.13
2022-12-27T20:08:42.747Z,95113.69
2022-12-27T20:11:14.591Z,95114.63
2022-12-27T20:13:41.367Z,95109.81
2022-12-27T20:16:10.189Z,95110.53
2022-12-27T20:18:38.824Z,95114.34
2022-12-27T20:21:06.405Z,95109.50
2022-12-27T20:23:33.146Z,95103.44
2022-12-27T20:25:59.962Z,95098.16
2022-12-27T20:28:26.631Z,95101.91
2022-12-27T20:30:53.294Z,95093.97
2022-12-27T20:33:20.235Z,95096.38
2022-12-27T20:35:57.196Z,95089.50
2022-12-27T20:38:25.205Z,95090.06
2022-12-27T20:40:52.602Z,95082.91
2022-12-27T20:43:19.633Z,95078.94
2022-12-27T20:45:47.315Z,95079.91
2022-12-27T20:48:14.212Z,95080.53
2022-12-27T20:50:41.391Z,95079.44
2022-12-27T20:53:08.175Z,95084.22
2022-12-27T20:55:34.889Z,95075.25
2022-12-27T20:58:01.669Z,95074.16
2022-12-27T21:00:28.589Z,95082.63
2022-12-27T21:02:55.543Z,95086.06
2022-12-27T21:05:22.304Z,95074.75
2022-12-27T21:07:48.991Z,95076.56
2022-12-27T21:10:15.782Z,95073.41
2022-12-27T21:12:42.455Z,95070.78
2022-12-27T21:15:09.707Z,95057.28
2022-12-27T21:17:36.467Z,95049.06
2022-12-27T21:20:03.607Z,95067.22
2022-12-27T21:22:30.320Z,95064.09
2022-12-27T21:24:57.256Z,95063.56
2022-12-27T21:27:23.896Z,95069.38
2022-12-27T21:29:50.587Z,95066.97
2022-12-27T21:32:18.083Z,95073.28
2022-12-27T21:34:44.789Z,95060.03
2022-12-27T21:37:13.456Z,95057.88
2022-12-27T21:39:40.582Z,95059.59
2022-12-27T21:42:07.353Z,95047.19
2022-12-27T21:44:36.889Z,95044.06
2022-12-27T21:47:03.739Z,95041.47
2022-12-27T21:49:30.724Z,95036.69
2022-12-27T21:51:57.398Z,95032.75
2022-12-27T21:54:24.172Z,95042.56
2022-12-27T21:56:51.029Z,95038.09
2022-12-27T21:59:17.732Z,95029.31
2022-12-27T22:01:51.732Z,95045.25
2022-12-27T22:04:20.895Z,95039.97
2022-12-27T22:06:48.268Z,95041.03
2022-12-27T22:09:15.601Z,95033.28
2022-12-27T22:11:42.557Z,95033.09
2022-12-27T22:14:09.469Z,95030.97
2022-12-27T22:16:38.829Z,95030.66
2022-12-27T22:19:10.965Z,95030.66
2022-12-27T22:21:39.179Z,95031.47
2022-12-27T22:24:07.029Z,95041.53
2022-12-27T22:26:37.369Z,95045.25
2022-12-27T22:29:06.729Z,95038.88
2022-12-27T22:31:35.434Z,95036.78
2022-12-27T22:34:03.537Z,95045.53
2022-12-27T22:36:30.730Z,95017.25
2022-12-27T22:38:59.303Z,95030.72
2022-12-27T22:41:28.651Z,95025.72
2022-12-27T22:44:00.722Z,95023.38
2022-12-27T22:46:39.387Z,95006.69
2022-12-27T22:49:15.727Z,95014.13
2022-12-27T22:51:42.854Z,95001.41
2022-12-27T22:54:09.506Z,95013.31
2022-12-27T22:56:40.135Z,95020.84
2022-12-27T22:59:16.299Z,95014.94
2022-12-27T23:01:45.164Z,95012.06
2022-12-27T23:04:13.933Z,95015.91
2022-12-27T23:06:42.081Z,95009.97
2022-12-27T23:09:09.367Z,95016.03
2022-12-27T23:11:40.789Z,95015.06
2022-12-27T23:14:13.940Z,95017.75
2022-12-27T23:16:46.593Z,95004.28
2022-12-27T23:19:16.133Z,95008.28
2022-12-27T23:21:43.279Z,95003.25
2022-12-27T23:24:11.026Z,95004.06
2022-12-27T23:26:38.452Z,94991.06
2022-12-27T23:29:06.178Z,94997.16
2022-12-27T23:31:33.710Z,94990.28
2022-12-27T23:34:00.868Z,94989.28
2022-12-27T23:36:27.691Z,94981.91
2022-12-27T23:38:55.412Z,94982.19
2022-12-27T23:41:24.336Z,94986.72
2022-12-27T23:43:54.288Z,94984.63
2022-12-27T23:46:29.963Z,94977.25
2022-12-27T23:48:58.608Z,94973.81
2022-12-27T23:51:26.318Z,94961.34
2022-12-27T23:53:52.976Z,94945.72
2022-12-27T23:56:23.500Z,94968.78
2022-12-27T23:58:52.970Z,94972.75
